createdAt,value
2022-10-26T00:01:11.216Z,3.03
2022-10-26T00:03:39.148Z,2.45
2022-10-26T00:06:10.634Z,1.52
2022-10-26T00:08:37.884Z,2.25
2022-10-26T00:11:04.961Z,1.45
2022-10-26T00:13:31.709Z,1.58
2022-10-26T00:18:25.463Z,3.80
2022-10-26T00:20:52.205Z,7.25
2022-10-26T00:23:19.080Z,2.38
2022-10-26T00:25:53.466Z,2.80
2022-10-26T00:28:20.216Z,2.15
2022-10-26T00:30:47.108Z,1.95
2022-10-26T00:33:14.218Z,3.15
2022-10-26T00:35:45.941Z,1.50
2022-10-26T00:38:13.290Z,4.57
2022-10-26T00:40:40.266Z,1.42
2022-10-26T00:43:16.455Z,2.97
2022-10-26T00:45:44.593Z,3.15
2022-10-26T00:48:34.392Z,1.67
2022-10-26T00:51:05.393Z,1.50
2022-10-26T00:53:33.116Z,1.70
2022-10-26T00:56:00.974Z,3.20
2022-10-26T00:58:27.794Z,1.80
2022-10-26T01:00:55.076Z,3.17
2022-10-26T01:03:25.146Z,3.80
2022-10-26T01:05:56.688Z,2.78
2022-10-26T01:08:23.937Z,1.85
2022-10-26T01:10:51.569Z,2.63
2022-10-26T01:13:18.864Z,3.08
2022-10-26T01:16:12.078Z,3.35
2022-10-26T01:19:16.510Z,2.70
2022-10-26T01:21:50.953Z,4.50
2022-10-26T01:24:46.241Z,7.53
2022-10-26T01:27:12.873Z,3.28
2022-10-26T01:30:18.200Z,7.45
2022-10-26T01:33:01.992Z,7.93
2022-10-26T01:35:46.377Z,4.80
2022-10-26T01:38:52.204Z,3.63
2022-10-26T01:41:31.452Z,2.95
2022-10-26T01:44:21.528Z,3.00
2022-10-26T01:46:51.217Z,2.95
2022-10-26T01:49:23.498Z,3.33
2022-10-26T01:51:50.514Z,7.75
2022-10-26T01:54:17.689Z,8.65
2022-10-26T01:56:52.186Z,6.88
2022-10-26T01:59:37.645Z,1.88
2022-10-26T02:02:22.736Z,1.90
2022-10-26T02:05:01.456Z,3.20
2022-10-26T02:07:35.689Z,2.85
2022-10-26T02:10:27.467Z,2.28
2022-10-26T02:13:01.718Z,2.83
2022-10-26T02:15:48.690Z,2.67
2022-10-26T02:18:34.169Z,1.42
2022-10-26T02:21:19.525Z,1.40
2022-10-26T02:23:48.018Z,2.92
2022-10-26T02:26:19.939Z,1.67
2022-10-26T02:28:50.734Z,1.80
2022-10-26T02:31:19.495Z,5.20
2022-10-26T02:36:26.600Z,1.10
2022-10-26T02:38:55.084Z,1.38
2022-10-26T02:41:23.816Z,1.48
2022-10-26T02:43:59.500Z,1.45
2022-10-26T02:46:27.516Z,2.95
2022-10-26T02:48:55.478Z,2.20
2022-10-26T02:51:41.029Z,20.67
2022-10-26T02:54:14.825Z,11.00
2022-10-26T02:56:44.478Z,1.98
2022-10-26T02:59:14.088Z,1.30
2022-10-26T03:01:41.862Z,1.30
2022-10-26T03:04:08.822Z,5.80
2022-10-26T03:06:35.553Z,3.40
2022-10-26T03:09:02.272Z,3.38
2022-10-26T03:11:29.066Z,2.50
2022-10-26T03:13:55.821Z,1.50
2022-10-26T03:16:22.509Z,1.75
2022-10-26T03:18:49.206Z,2.13
2022-10-26T03:21:15.909Z,1.48
2022-10-26T03:23:42.608Z,1.50
2022-10-26T03:26:09.300Z,1.77
2022-10-26T03:28:36.008Z,4.65
2022-10-26T03:31:02.735Z,2.90
2022-10-26T03:33:29.467Z,1.30
2022-10-26T03:35:56.861Z,2.38
2022-10-26T03:38:24.058Z,2.67
2022-10-26T03:40:50.799Z,1.50
2022-10-26T03:43:17.684Z,2.03
2022-10-26T03:45:44.432Z,2.40
2022-10-26T03:48:11.181Z,2.53
2022-10-26T03:50:37.938Z,4.25
2022-10-26T03:53:04.910Z,3.88
2022-10-26T03:55:31.655Z,1.85
2022-10-26T03:57:58.339Z,1.63
2022-10-26T04:00:25.306Z,1.98
2022-10-26T04:02:57.460Z,1.25
2022-10-26T04:05:26.429Z,2.80
2022-10-26T04:07:58.080Z,2.08
2022-10-26T04:10:25.889Z,1.60
2022-10-26T04:12:53.247Z,1.65
2022-10-26T04:15:20.812Z,2.05
2022-10-26T04:17:48.448Z,2.67
2022-10-26T04:20:15.483Z,3.33
2022-10-26T04:22:42.232Z,2.78
2022-10-26T04:25:10.412Z,1.23
2022-10-26T04:27:37.156Z,3.03
2022-10-26T04:30:05.567Z,1.77
2022-10-26T04:32:32.261Z,2.28
2022-10-26T04:34:58.966Z,0.73
2022-10-26T04:37:25.718Z,1.38
2022-10-26T04:39:52.477Z,1.80
2022-10-26T04:42:19.243Z,2.13
2022-10-26T04:44:45.971Z,1.00
2022-10-26T04:47:12.673Z,2.88
2022-10-26T04:49:39.362Z,3.45
2022-10-26T04:52:06.395Z,0.70
2022-10-26T04:54:33.061Z,0.73
2022-10-26T04:56:59.729Z,0.80
2022-10-26T04:59:26.409Z,0.70
2022-10-26T05:01:53.205Z,1.52
2022-10-26T05:04:20.532Z,1.30
2022-10-26T05:06:47.217Z,1.58
2022-10-26T05:09:13.920Z,1.58
2022-10-26T05:11:40.605Z,2.00
2022-10-26T05:14:07.390Z,2.53
2022-10-26T05:16:34.096Z,1.70
2022-10-26T05:19:00.832Z,3.60
2022-10-26T05:21:27.556Z,1.98
2022-10-26T05:23:55.492Z,0.85
2022-10-26T05:26:23.753Z,1.65
2022-10-26T05:28:52.035Z,3.03
2022-10-26T05:31:19.439Z,1.10
2022-10-26T05:33:50.305Z,2.30
2022-10-26T05:36:18.237Z,1.35
2022-10-26T05:38:45.369Z,1.58
2022-10-26T05:41:12.281Z,2.17
2022-10-26T05:43:39.399Z,1.65
2022-10-26T05:46:06.225Z,1.63
2022-10-26T05:48:33.037Z,1.23
2022-10-26T05:51:01.713Z,2.13
2022-10-26T05:53:28.615Z,2.80
2022-10-26T05:55:56.321Z,2.42
2022-10-26T05:58:23.388Z,5.32
2022-10-26T06:01:14.153Z,3.03
2022-10-26T06:04:09.644Z,2.88
2022-10-26T06:06:44.292Z,2.63
2022-10-26T06:09:15.183Z,4.65
2022-10-26T06:11:42.317Z,5.18
2022-10-26T06:14:10.186Z,4.18
2022-10-26T06:16:48.743Z,4.15
2022-10-26T06:19:40.644Z,4.00
2022-10-26T06:22:23.262Z,7.70
2022-10-26T06:25:03.993Z,4.10
2022-10-26T06:27:51.841Z,3.67
2022-10-26T06:30:20.162Z,5.57
2022-10-26T06:32:47.328Z,16.83
2022-10-26T06:35:14.128Z,9.77
2022-10-26T06:37:45.713Z,6.95
2022-10-26T06:40:15.380Z,3.53
2022-10-26T06:42:42.404Z,2.97
2022-10-26T06:48:05.028Z,2.78
2022-10-26T06:50:53.097Z,3.50
2022-10-26T06:53:45.971Z,5.38
2022-10-26T06:56:13.888Z,5.20
2022-10-26T06:58:41.733Z,5.75
2022-10-26T07:01:11.653Z,3.92
2022-10-26T07:03:38.784Z,4.55
2022-10-26T07:06:06.082Z,4.10
2022-10-26T07:08:32.925Z,2.85
2022-10-26T07:10:59.739Z,2.80
2022-10-26T07:13:26.423Z,2.33
2022-10-26T07:15:53.075Z,5.07
2022-10-26T07:18:19.781Z,4.15
2022-10-26T07:20:46.470Z,6.63
2022-10-26T07:23:13.223Z,3.97
2022-10-26T07:25:40.778Z,6.68
2022-10-26T07:28:12.700Z,2.58
2022-10-26T07:30:40.221Z,2.83
2022-10-26T07:33:12.554Z,4.40
2022-10-26T07:35:39.628Z,2.53
2022-10-26T07:38:07.041Z,10.13
2022-10-26T07:40:33.848Z,6.97
2022-10-26T07:43:00.972Z,7.68
2022-10-26T07:45:29.497Z,8.23
2022-10-26T07:47:57.084Z,8.25
2022-10-26T07:50:24.390Z,8.48
2022-10-26T07:52:51.323Z,4.15
2022-10-26T07:55:19.080Z,3.65
2022-10-26T07:57:47.543Z,4.63
2022-10-26T08:00:17.775Z,3.38
2022-10-26T08:02:44.867Z,4.15
2022-10-26T08:05:11.589Z,4.03
2022-10-26T08:07:42.926Z,2.80
2022-10-26T08:10:10.913Z,3.92
2022-10-26T08:12:37.768Z,3.47
2022-10-26T08:15:04.874Z,0.60
2022-10-26T08:17:31.657Z,2.20
2022-10-26T08:19:59.958Z,2.17
2022-10-26T08:22:30.099Z,1.75
2022-10-26T08:24:56.929Z,2.65
2022-10-26T08:27:23.601Z,2.95
2022-10-26T08:29:50.297Z,2.15
2022-10-26T08:32:16.951Z,3.47
2022-10-26T08:34:43.631Z,4.82
2022-10-26T08:37:10.308Z,1.33
2022-10-26T08:39:37.059Z,1.08
2022-10-26T08:42:17.018Z,2.65
2022-10-26T08:44:48.639Z,1.73
2022-10-26T08:47:25.191Z,1.58
2022-10-26T08:50:13.992Z,3.10
2022-10-26T08:52:50.519Z,1.55
2022-10-26T08:55:21.074Z,3.95
2022-10-26T08:57:50.092Z,1.17
2022-10-26T09:00:25.247Z,2.60
2022-10-26T09:02:53.442Z,3.55
2022-10-26T09:05:38.660Z,1.92
2022-10-26T09:08:55.961Z,1.77
2022-10-26T09:11:37.713Z,1.35
2022-10-26T09:14:30.984Z,2.03
2022-10-26T09:17:25.816Z,3.35
2022-10-26T09:19:55.556Z,1.77
2022-10-26T09:22:44.238Z,3.67
2022-10-26T09:25:21.268Z,2.47
2022-10-26T09:27:53.997Z,2.90
2022-10-26T09:30:21.940Z,2.65
2022-10-26T09:32:52.241Z,3.80
2022-10-26T09:35:25.780Z,1.58
2022-10-26T09:37:59.236Z,1.70
2022-10-26T09:40:46.517Z,2.65
2022-10-26T09:43:33.116Z,1.55
2022-10-26T09:45:59.936Z,4.63
2022-10-26T09:48:42.906Z,2.97
2022-10-26T09:51:11.115Z,4.38
2022-10-26T09:53:37.803Z,2.10
2022-10-26T09:56:07.431Z,3.08
2022-10-26T09:59:02.137Z,5.53
2022-10-26T10:01:35.627Z,3.85
2022-10-26T10:04:16.645Z,2.83
2022-10-26T10:06:45.050Z,5.53
2022-10-26T10:09:21.107Z,6.22
2022-10-26T10:11:55.215Z,5.63
2022-10-26T10:14:29.241Z,3.75
2022-10-26T10:17:01.728Z,1.85
2022-10-26T10:22:15.973Z,3.03
2022-10-26T10:24:53.699Z,7.05
2022-10-26T10:27:20.799Z,2.50
2022-10-26T10:29:53.001Z,3.72
2022-10-26T10:32:34.066Z,3.30
2022-10-26T10:35:25.317Z,4.00
2022-10-26T10:37:52.669Z,3.22
2022-10-26T10:40:25.353Z,1.38
2022-10-26T10:43:01.276Z,2.10
2022-10-26T10:45:30.523Z,3.75
2022-10-26T10:48:04.373Z,3.78
2022-10-26T10:50:32.214Z,2.88
2022-10-26T10:53:34.214Z,2.13
2022-10-26T10:56:15.653Z,2.25
2022-10-26T10:58:59.696Z,1.73
2022-10-26T11:01:34.353Z,2.85
2022-10-26T11:04:28.142Z,2.83
2022-10-26T11:06:59.451Z,2.42
2022-10-26T11:09:29.351Z,6.95
2022-10-26T11:12:01.510Z,3.55
2022-10-26T11:14:30.253Z,7.05
2022-10-26T11:17:25.265Z,3.28
2022-10-26T11:19:55.591Z,3.75
2022-10-26T11:22:29.847Z,8.55
2022-10-26T11:25:00.807Z,2.45
2022-10-26T11:27:30.572Z,3.72
2022-10-26T11:30:19.928Z,7.25
2022-10-26T11:32:58.482Z,3.25
2022-10-26T11:35:35.690Z,4.18
2022-10-26T11:38:56.842Z,3.10
2022-10-26T11:41:42.697Z,3.63
2022-10-26T11:44:17.557Z,1.60
2022-10-26T11:46:55.880Z,1.88
2022-10-26T11:49:38.096Z,5.00
2022-10-26T11:52:18.025Z,5.38
2022-10-26T11:54:48.268Z,4.30
2022-10-26T11:57:16.605Z,3.42
2022-10-26T11:59:49.340Z,7.72
2022-10-26T12:02:19.840Z,4.10
2022-10-26T12:05:02.557Z,5.55
2022-10-26T12:09:58.831Z,8.02
2022-10-26T12:12:50.141Z,5.25
2022-10-26T12:16:01.774Z,4.35
2022-10-26T12:18:55.513Z,5.75
2022-10-26T12:21:27.409Z,4.43
2022-10-26T12:23:59.844Z,5.25
2022-10-26T12:26:26.496Z,2.88
2022-10-26T12:29:02.195Z,3.63
2022-10-26T12:31:37.955Z,4.30
2022-10-26T12:34:14.253Z,6.88
2022-10-26T12:36:56.459Z,4.85
2022-10-26T12:39:32.432Z,6.97
2022-10-26T12:42:09.839Z,5.32
2022-10-26T12:44:41.245Z,7.85
2022-10-26T12:47:09.549Z,4.63
2022-10-26T12:49:59.518Z,3.80
2022-10-26T12:52:40.621Z,5.80
2022-10-26T12:55:19.047Z,6.68
2022-10-26T12:57:45.690Z,5.20
2022-10-26T13:00:21.720Z,4.65
2022-10-26T13:03:12.825Z,7.28
2022-10-26T13:06:03.670Z,7.28
2022-10-26T13:08:44.514Z,9.70
2022-10-26T13:11:29.418Z,7.25
2022-10-26T13:13:59.755Z,8.93
2022-10-26T13:16:28.396Z,6.93
2022-10-26T13:18:56.243Z,9.70
2022-10-26T13:21:24.654Z,6.22
2022-10-26T13:23:54.682Z,6.25
2022-10-26T13:26:28.113Z,7.05
2022-10-26T13:29:00.461Z,8.32
2022-10-26T13:31:32.740Z,6.68
2022-10-26T13:34:03.307Z,5.97
2022-10-26T13:36:41.944Z,8.80
2022-10-26T13:39:21.997Z,5.72
2022-10-26T13:41:52.360Z,6.35
2022-10-26T13:44:35.559Z,6.55
2022-10-26T13:47:36.949Z,7.45
2022-10-26T13:50:31.310Z,3.25
2022-10-26T13:53:06.942Z,7.05
2022-10-26T13:55:46.949Z,6.32
2022-10-26T13:58:31.316Z,6.10
2022-10-26T14:01:10.306Z,5.38
2022-10-26T14:03:38.014Z,6.85
2022-10-26T14:06:28.936Z,6.30
2022-10-26T14:09:00.562Z,6.05
2022-10-26T14:11:36.870Z,9.30
2022-10-26T14:14:04.562Z,8.00
2022-10-26T14:16:33.649Z,7.38
2022-10-26T14:19:00.694Z,6.75
2022-10-26T14:21:27.470Z,6.85
2022-10-26T14:23:59.670Z,5.88
2022-10-26T14:26:40.747Z,5.35
2022-10-26T14:29:25.025Z,6.43
2022-10-26T14:31:52.113Z,6.18
2022-10-26T14:34:19.581Z,6.88
2022-10-26T14:36:46.211Z,7.53
2022-10-26T14:39:33.087Z,8.27
2022-10-26T14:42:03.448Z,6.40
2022-10-26T14:44:30.409Z,7.80
2022-10-26T14:46:57.129Z,7.28
2022-10-26T14:49:26.507Z,6.32
2022-10-26T14:52:04.601Z,7.03
2022-10-26T14:54:32.187Z,9.55
2022-10-26T14:57:02.524Z,8.60
2022-10-26T14:59:31.000Z,14.30
2022-10-26T15:02:19.860Z,6.63
2022-10-26T15:05:16.652Z,4.95
2022-10-26T15:07:44.634Z,7.13
2022-10-26T15:10:36.038Z,5.55
2022-10-26T15:13:29.364Z,4.32
2022-10-26T15:16:06.704Z,7.95
2022-10-26T15:18:36.052Z,9.32
2022-10-26T15:21:03.451Z,7.78
2022-10-26T15:23:31.034Z,8.75
2022-10-26T15:26:02.312Z,9.90
2022-10-26T15:28:30.524Z,7.03
2022-10-26T15:31:07.832Z,7.28
2022-10-26T15:33:35.482Z,8.77
2022-10-26T15:36:08.206Z,10.40
2022-10-26T15:38:35.602Z,7.68
2022-10-26T15:41:04.227Z,8.50
2022-10-26T15:43:30.944Z,5.72
2022-10-26T15:45:57.743Z,9.40
2022-10-26T15:48:28.836Z,10.10
2022-10-26T15:50:56.199Z,7.57
2022-10-26T15:53:27.481Z,7.60
2022-10-26T15:55:56.885Z,6.80
2022-10-26T15:58:23.781Z,8.27
2022-10-26T16:00:50.494Z,8.65
2022-10-26T16:03:21.314Z,15.13
2022-10-26T16:05:52.971Z,5.53
2022-10-26T16:08:19.656Z,4.90
2022-10-26T16:10:46.962Z,7.70
2022-10-26T16:13:15.028Z,7.95
2022-10-26T16:15:42.078Z,7.78
2022-10-26T16:18:08.809Z,6.15
2022-10-26T16:20:35.818Z,7.57
2022-10-26T16:23:06.620Z,6.85
2022-10-26T16:25:42.562Z,6.88
2022-10-26T16:28:12.129Z,3.92
2022-10-26T16:30:38.832Z,8.15
2022-10-26T16:33:05.653Z,12.07
2022-10-26T16:35:32.370Z,6.65
2022-10-26T16:37:59.096Z,10.10
2022-10-26T16:40:26.603Z,14.95
2022-10-26T16:42:53.373Z,11.82
2022-10-26T16:45:20.286Z,13.35
2022-10-26T16:47:47.211Z,15.02
2022-10-26T16:50:14.653Z,12.95
2022-10-26T16:52:41.529Z,16.65
2022-10-26T16:55:08.975Z,11.77
2022-10-26T16:57:36.783Z,8.07
2022-10-26T17:00:05.965Z,10.02
2022-10-26T17:02:32.833Z,16.60
2022-10-26T17:05:02.690Z,19.65
2022-10-26T17:07:32.731Z,16.58
2022-10-26T17:09:59.417Z,12.05
2022-10-26T17:14:53.752Z,17.65
2022-10-26T17:17:20.436Z,7.85
2022-10-26T17:19:47.104Z,6.10
2022-10-26T17:22:13.787Z,8.13
2022-10-26T17:24:40.469Z,19.90
2022-10-26T17:27:07.165Z,22.27
2022-10-26T17:29:33.870Z,8.70
2022-10-26T17:32:00.603Z,11.57
2022-10-26T17:34:27.265Z,10.23
2022-10-26T17:36:53.951Z,10.77
2022-10-26T17:39:20.959Z,11.85
2022-10-26T17:41:47.656Z,14.35
2022-10-26T17:44:14.369Z,13.95
2022-10-26T17:46:41.173Z,12.75
2022-10-26T17:49:07.808Z,12.88
2022-10-26T17:51:34.523Z,9.15
2022-10-26T17:54:01.206Z,13.52
2022-10-26T17:56:30.298Z,22.35
2022-10-26T17:58:59.362Z,19.20
2022-10-26T18:01:27.127Z,12.25
2022-10-26T18:03:54.021Z,19.65
2022-10-26T18:06:21.367Z,13.18
2022-10-26T18:08:48.202Z,18.80
2022-10-26T18:11:22.516Z,14.95
2022-10-26T18:13:53.704Z,11.30
2022-10-26T18:16:24.433Z,9.18
2022-10-26T18:19:02.747Z,8.25
2022-10-26T18:21:31.884Z,6.95
2022-10-26T18:23:58.966Z,14.85
2022-10-26T18:26:28.713Z,9.98
2022-10-26T18:28:56.515Z,12.80
2022-10-26T18:31:24.777Z,10.75
2022-10-26T18:33:58.157Z,10.25
2022-10-26T18:36:25.761Z,9.75
2022-10-26T18:38:52.736Z,16.27
2022-10-26T18:41:21.604Z,16.52
2022-10-26T18:43:50.642Z,10.60
2022-10-26T18:46:22.899Z,7.55
2022-10-26T18:48:50.644Z,7.03
2022-10-26T18:51:20.027Z,8.45
2022-10-26T18:53:47.736Z,9.82
2022-10-26T18:56:16.866Z,11.55
2022-10-26T18:58:45.955Z,13.73
2022-10-26T19:01:15.711Z,9.20
2022-10-26T19:03:43.815Z,8.38
2022-10-26T19:06:16.150Z,8.85
2022-10-26T19:08:43.444Z,6.70
2022-10-26T19:11:12.561Z,9.70
2022-10-26T19:13:39.530Z,7.30
2022-10-26T19:16:21.718Z,10.48
2022-10-26T19:18:55.691Z,12.55
2022-10-26T19:21:22.672Z,11.77
2022-10-26T19:23:51.678Z,9.38
2022-10-26T19:26:21.624Z,10.30
2022-10-26T19:28:55.071Z,9.73
2022-10-26T19:31:26.238Z,9.10
2022-10-26T19:33:56.298Z,10.25
2022-10-26T19:36:23.665Z,9.27
2022-10-26T19:38:50.498Z,10.65
2022-10-26T19:41:17.797Z,11.57
2022-10-26T19:43:45.111Z,6.20
2022-10-26T19:46:14.367Z,10.20
2022-10-26T19:48:41.685Z,12.38
2022-10-26T19:51:08.825Z,7.75
2022-10-26T19:53:35.957Z,6.03
2022-10-26T19:56:03.149Z,8.57
2022-10-26T19:58:31.223Z,6.95
2022-10-26T20:01:02.324Z,5.10
2022-10-26T20:03:30.509Z,8.38
2022-10-26T20:05:58.651Z,5.32
2022-10-26T20:08:25.614Z,5.22
2022-10-26T20:10:57.251Z,9.98
2022-10-26T20:13:24.283Z,11.07
2022-10-26T20:15:52.176Z,6.25
2022-10-26T20:18:19.819Z,11.70
2022-10-26T20:20:46.968Z,8.82
2022-10-26T20:23:13.749Z,8.30
2022-10-26T20:25:46.200Z,10.18
2022-10-26T20:28:13.648Z,7.90
2022-10-26T20:30:41.991Z,12.50
2022-10-26T20:33:09.907Z,9.05
2022-10-26T20:35:36.877Z,10.20
2022-10-26T20:38:05.176Z,6.43
2022-10-26T20:40:32.393Z,5.55
2022-10-26T20:42:59.762Z,7.00
2022-10-26T20:45:31.755Z,7.75
2022-10-26T20:48:00.160Z,4.28
2022-10-26T20:50:29.301Z,5.63
2022-10-26T20:53:00.424Z,6.47
2022-10-26T20:55:40.341Z,10.68
2022-10-26T20:58:35.791Z,7.40
2022-10-26T21:01:23.736Z,6.30
2022-10-26T21:03:51.774Z,7.75
2022-10-26T21:06:18.601Z,7.78
2022-10-26T21:08:45.375Z,6.75
2022-10-26T21:11:12.072Z,6.47
2022-10-26T21:13:38.864Z,6.90
2022-10-26T21:16:08.349Z,6.40
2022-10-26T21:18:35.124Z,6.25
2022-10-26T21:21:02.282Z,5.00
2022-10-26T21:23:37.438Z,7.70
2022-10-26T21:26:04.554Z,6.47
2022-10-26T21:28:37.185Z,7.22
2022-10-26T21:33:32.151Z,15.95
2022-10-26T21:35:59.949Z,13.80
2022-10-26T21:38:27.767Z,9.27
2022-10-26T21:41:14.121Z,7.63
2022-10-26T21:43:42.738Z,6.03
2022-10-26T21:46:10.409Z,7.40
2022-10-26T21:48:37.735Z,6.97
2022-10-26T21:51:07.077Z,8.68
2022-10-26T21:53:33.974Z,5.40
2022-10-26T21:56:05.520Z,2.80
2022-10-26T21:58:35.560Z,6.15
2022-10-26T22:01:14.707Z,10.02
2022-10-26T22:03:42.708Z,7.57
2022-10-26T22:06:12.639Z,8.02
2022-10-26T22:08:40.063Z,7.05
2022-10-26T22:11:15.415Z,10.85
2022-10-26T22:13:43.448Z,3.08
2022-10-26T22:16:13.209Z,7.05
2022-10-26T22:18:46.212Z,6.07
2022-10-26T22:21:14.253Z,6.53
2022-10-26T22:23:42.263Z,7.30
2022-10-26T22:26:26.821Z,4.65
2022-10-26T22:28:56.186Z,4.63
2022-10-26T22:31:25.573Z,7.70
2022-10-26T22:33:53.800Z,4.65
2022-10-26T22:36:21.213Z,4.00
2022-10-26T22:38:49.689Z,4.05
2022-10-26T22:41:17.955Z,3.15
2022-10-26T22:43:44.722Z,3.10
2022-10-26T22:46:14.353Z,5.70
2022-10-26T22:48:41.847Z,4.18
2022-10-26T22:51:11.693Z,1.50
2022-10-26T22:53:38.685Z,2.70
2022-10-26T22:56:07.111Z,3.88
2022-10-26T22:58:35.250Z,2.65
2022-10-26T23:01:02.984Z,3.05
2022-10-26T23:03:29.775Z,3.80
2022-10-26T23:05:57.341Z,3.50
2022-10-26T23:08:24.265Z,4.03
2022-10-26T23:10:51.246Z,1.83
2022-10-26T23:13:17.941Z,4.40
2022-10-26T23:15:44.759Z,2.30
2022-10-26T23:18:11.505Z,2.95
2022-10-26T23:20:38.205Z,2.28
2022-10-26T23:23:04.880Z,2.65
2022-10-26T23:25:31.555Z,1.70
2022-10-26T23:27:58.259Z,5.40
2022-10-26T23:30:25.219Z,3.17
2022-10-26T23:32:52.112Z,4.30
2022-10-26T23:35:18.986Z,4.35
2022-10-26T23:37:45.657Z,1.63
2022-10-26T23:40:12.519Z,4.47
2022-10-26T23:42:39.252Z,3.80
2022-10-26T23:45:06.294Z,4.03
2022-10-26T23:47:32.964Z,4.40
2022-10-26T23:49:59.635Z,2.63
2022-10-26T23:52:26.367Z,1.50
2022-10-26T23:54:53.133Z,3.13
2022-10-26T23:57:19.787Z,2.50
2022-10-26T23:59:46.449Z,4.70
